createdAt,value
2018-12-20T00:00:16.387Z,6.18
2018-12-20T00:02:43.835Z,6.18
2018-12-20T00:05:11.285Z,6.22
2018-12-20T00:07:38.660Z,6.26
2018-12-20T00:10:06.132Z,6.34
2018-12-20T00:12:33.536Z,6.41
2018-12-20T00:15:01.034Z,6.45
2018-12-20T00:17:33.979Z,6.41
2018-12-20T00:20:01.301Z,6.38
2018-12-20T00:22:28.845Z,6.38
2018-12-20T00:24:56.095Z,6.41
2018-12-20T00:27:23.599Z,6.42
2018-12-20T00:29:51.015Z,6.38
2018-12-20T00:32:18.402Z,6.37
2018-12-20T00:34:45.847Z,6.34
2018-12-20T00:37:13.303Z,6.38
2018-12-20T00:39:40.630Z,6.39
2018-12-20T00:42:08.071Z,6.33
2018-12-20T00:44:37.482Z,6.25
2018-12-20T00:47:02.945Z,6.21
2018-12-20T00:49:30.481Z,6.11
2018-12-20T00:51:57.760Z,6.09
2018-12-20T00:54:25.198Z,6.05
2018-12-20T00:56:52.792Z,5.92
2018-12-20T00:59:20.049Z,5.93
2018-12-20T01:01:47.461Z,5.90
2018-12-20T01:04:14.897Z,5.80
2018-12-20T01:06:42.443Z,5.89
2018-12-20T01:09:09.815Z,6.04
2018-12-20T01:11:37.166Z,6.14
2018-12-20T01:14:04.594Z,6.19
2018-12-20T01:16:32.165Z,6.22
2018-12-20T01:18:59.538Z,6.18
2018-12-20T01:21:27.303Z,6.20
2018-12-20T01:23:54.785Z,6.20
2018-12-20T01:26:22.109Z,6.20
2018-12-20T01:28:49.583Z,6.21
2018-12-20T01:31:17.058Z,6.25
2018-12-20T01:33:44.312Z,6.32
2018-12-20T01:36:11.847Z,6.40
2018-12-20T01:38:39.296Z,6.47
2018-12-20T01:41:06.637Z,6.52
2018-12-20T01:43:34.200Z,6.52
2018-12-20T01:46:01.728Z,6.57
2018-12-20T01:48:29.060Z,6.48
2018-12-20T01:50:56.460Z,6.43
2018-12-20T01:53:24.140Z,6.42
2018-12-20T01:55:51.523Z,6.44
2018-12-20T01:58:18.975Z,6.45
2018-12-20T02:00:46.507Z,6.39
2018-12-20T02:03:14.109Z,6.34
2018-12-20T02:05:41.571Z,6.39
2018-12-20T02:08:09.072Z,6.41
2018-12-20T02:10:36.496Z,6.44
2018-12-20T02:13:03.962Z,6.45
2018-12-20T02:15:31.469Z,6.53
2018-12-20T02:17:59.043Z,6.61
2018-12-20T02:20:26.708Z,6.67
2018-12-20T02:22:54.022Z,6.72
2018-12-20T02:25:21.601Z,6.72
2018-12-20T02:27:48.918Z,6.74
2018-12-20T02:30:16.235Z,6.77
2018-12-20T02:32:43.775Z,6.78
2018-12-20T02:35:11.130Z,6.80
2018-12-20T02:37:38.522Z,6.81
2018-12-20T02:40:06.066Z,6.81
2018-12-20T02:42:33.404Z,6.79
2018-12-20T02:45:00.799Z,6.82
2018-12-20T02:47:28.740Z,6.74
2018-12-20T02:49:56.155Z,6.77
2018-12-20T02:52:23.672Z,6.80
2018-12-20T02:54:51.278Z,6.84
2018-12-20T02:57:18.658Z,6.88
2018-12-20T02:59:45.843Z,6.87
2018-12-20T03:02:13.270Z,6.82
2018-12-20T03:04:40.702Z,6.86
2018-12-20T03:07:08.129Z,6.85
2018-12-20T03:09:35.653Z,6.86
2018-12-20T03:12:02.908Z,6.81
2018-12-20T03:14:30.339Z,6.72
2018-12-20T03:16:57.773Z,6.70
2018-12-20T03:19:25.176Z,6.66
2018-12-20T03:21:52.623Z,6.70
2018-12-20T03:24:20.232Z,6.70
2018-12-20T03:26:47.509Z,6.78
2018-12-20T03:29:14.884Z,6.84
2018-12-20T03:31:42.379Z,6.84
2018-12-20T03:34:09.789Z,6.85
2018-12-20T03:36:37.334Z,6.86
2018-12-20T03:39:04.761Z,6.84
2018-12-20T03:41:32.265Z,6.77
2018-12-20T03:43:59.615Z,6.79
2018-12-20T03:46:27.029Z,6.82
2018-12-20T03:48:54.528Z,6.86
2018-12-20T03:51:21.904Z,6.91
2018-12-20T03:53:49.630Z,6.91
2018-12-20T03:56:16.825Z,6.90
2018-12-20T03:58:44.377Z,6.92
2018-12-20T04:01:11.596Z,6.95
2018-12-20T04:03:39.052Z,7.02
2018-12-20T04:06:06.764Z,7.02
2018-12-20T04:08:33.999Z,6.98
2018-12-20T04:11:01.530Z,6.97
2018-12-20T04:13:28.855Z,6.96
2018-12-20T04:15:56.437Z,6.94
2018-12-20T04:18:23.886Z,6.93
2018-12-20T04:20:51.255Z,6.94
2018-12-20T04:23:18.782Z,6.97
2018-12-20T04:25:45.923Z,6.98
2018-12-20T04:28:13.332Z,6.94
2018-12-20T04:30:40.755Z,6.92
2018-12-20T04:33:08.183Z,6.87
2018-12-20T04:35:35.576Z,6.90
2018-12-20T04:38:02.995Z,6.88
2018-12-20T04:40:30.575Z,6.83
2018-12-20T04:42:57.842Z,6.75
2018-12-20T04:45:25.282Z,6.67
2018-12-20T04:47:52.967Z,6.62
2018-12-20T04:50:20.187Z,6.63
2018-12-20T04:52:47.623Z,6.63
2018-12-20T04:55:15.303Z,6.62
2018-12-20T04:57:42.486Z,6.64
2018-12-20T05:00:10.040Z,6.66
2018-12-20T05:02:37.338Z,6.66
2018-12-20T05:05:04.881Z,6.63
2018-12-20T05:07:32.294Z,6.55
2018-12-20T05:10:00.403Z,6.53
2018-12-20T05:12:27.854Z,6.45
2018-12-20T05:14:55.414Z,6.45
2018-12-20T05:17:22.654Z,6.45
2018-12-20T05:19:50.139Z,6.49
2018-12-20T05:22:17.460Z,6.51
2018-12-20T05:24:44.981Z,6.51
2018-12-20T05:27:12.449Z,6.55
2018-12-20T05:29:39.902Z,6.55
2018-12-20T05:32:07.375Z,6.57
2018-12-20T05:34:34.756Z,6.56
2018-12-20T05:37:02.408Z,6.58
2018-12-20T05:39:29.619Z,6.56
2018-12-20T05:41:57.217Z,6.59
2018-12-20T05:44:24.709Z,6.63
2018-12-20T05:46:51.858Z,6.61
2018-12-20T05:49:19.363Z,6.56
2018-12-20T05:51:46.787Z,6.52
2018-12-20T05:54:14.214Z,6.50
2018-12-20T05:56:41.672Z,6.48
2018-12-20T05:59:09.083Z,6.44
2018-12-20T06:01:36.622Z,6.38
2018-12-20T06:04:04.121Z,6.32
2018-12-20T06:06:31.487Z,6.31
2018-12-20T06:08:59.078Z,6.33
2018-12-20T06:11:26.326Z,6.28
2018-12-20T06:13:55.169Z,6.20
2018-12-20T06:16:21.351Z,6.15
2018-12-20T06:18:48.604Z,6.09
2018-12-20T06:21:16.142Z,6.06
2018-12-20T06:23:43.519Z,6.03
2018-12-20T06:26:10.975Z,6.06
2018-12-20T06:28:38.384Z,6.02
2018-12-20T06:31:05.894Z,5.94
2018-12-20T06:33:33.321Z,5.87
2018-12-20T06:36:00.818Z,5.80
2018-12-20T06:38:28.213Z,5.75
2018-12-20T06:40:55.679Z,5.76
2018-12-20T06:43:23.095Z,5.72
2018-12-20T06:45:50.587Z,5.76
2018-12-20T06:48:17.985Z,5.57
2018-12-20T06:50:45.560Z,5.40
2018-12-20T06:53:13.071Z,5.42
2018-12-20T06:55:40.514Z,5.40
2018-12-20T06:58:07.931Z,5.53
2018-12-20T07:00:35.368Z,5.66
2018-12-20T07:03:03.348Z,5.62
2018-12-20T07:05:30.759Z,5.57
2018-12-20T07:07:58.170Z,5.55
2018-12-20T07:10:25.567Z,5.56
2018-12-20T07:12:52.983Z,5.48
2018-12-20T07:15:20.375Z,5.42
2018-12-20T07:17:47.774Z,5.42
2018-12-20T07:20:15.208Z,5.42
2018-12-20T07:22:42.646Z,5.50
2018-12-20T07:25:10.067Z,5.57
2018-12-20T07:27:37.480Z,5.67
2018-12-20T07:30:04.878Z,5.69
2018-12-20T07:32:32.360Z,5.83
2018-12-20T07:34:59.806Z,5.96
2018-12-20T07:37:27.476Z,6.01
2018-12-20T07:39:54.864Z,6.09
2018-12-20T07:42:22.277Z,6.15
2018-12-20T07:44:49.692Z,6.14
2018-12-20T07:47:17.153Z,6.18
2018-12-20T07:49:44.565Z,6.29
2018-12-20T07:52:11.983Z,6.27
2018-12-20T07:54:39.385Z,6.28
2018-12-20T07:57:06.801Z,6.33
2018-12-20T07:59:34.261Z,6.40
2018-12-20T08:02:01.669Z,6.47
2018-12-20T08:04:29.175Z,6.52
2018-12-20T08:06:56.492Z,6.62
2018-12-20T08:09:23.918Z,6.65
2018-12-20T08:11:51.352Z,6.70
2018-12-20T08:14:18.837Z,6.75
2018-12-20T08:16:46.377Z,6.80
2018-12-20T08:19:13.687Z,6.87
2018-12-20T08:21:41.118Z,6.99
2018-12-20T08:24:08.526Z,7.06
2018-12-20T08:26:35.940Z,7.09
2018-12-20T08:29:03.350Z,7.16
2018-12-20T08:31:30.810Z,7.22
2018-12-20T08:33:58.257Z,7.28
2018-12-20T08:36:25.694Z,7.32
2018-12-20T08:38:53.091Z,7.35
2018-12-20T08:41:20.607Z,7.44
2018-12-20T08:43:48.018Z,7.45
2018-12-20T08:46:15.428Z,7.86
2018-12-20T08:48:42.819Z,7.91
2018-12-20T08:51:10.245Z,8.02
2018-12-20T08:53:37.683Z,8.00
2018-12-20T08:56:05.074Z,8.38
2018-12-20T08:58:33.134Z,8.73
2018-12-20T09:01:00.633Z,8.80
2018-12-20T09:03:28.212Z,8.60
2018-12-20T09:05:55.642Z,8.49
2018-12-20T09:08:23.035Z,8.40
2018-12-20T09:10:50.445Z,8.33
2018-12-20T09:13:17.910Z,8.21
2018-12-20T09:15:45.364Z,8.21
2018-12-20T09:18:12.776Z,8.26
2018-12-20T09:20:40.199Z,8.24
2018-12-20T09:23:07.612Z,8.22
2018-12-20T09:25:35.015Z,8.25
2018-12-20T09:28:02.415Z,8.28
2018-12-20T09:30:30.708Z,8.29
2018-12-20T09:32:57.659Z,8.20
2018-12-20T09:35:25.070Z,8.20
2018-12-20T09:37:52.503Z,8.26
2018-12-20T09:40:19.897Z,8.16
2018-12-20T09:42:47.407Z,8.11
2018-12-20T09:45:14.806Z,8.05
2018-12-20T09:47:47.714Z,8.12
2018-12-20T09:50:15.107Z,8.14
2018-12-20T09:52:42.054Z,8.09
2018-12-20T09:55:09.449Z,7.98
2018-12-20T09:57:36.851Z,7.95
2018-12-20T10:00:04.291Z,8.08
2018-12-20T10:02:31.711Z,8.13
2018-12-20T10:04:59.156Z,8.24
2018-12-20T10:07:26.592Z,8.31
2018-12-20T10:09:54.007Z,8.41
2018-12-20T10:12:21.664Z,8.45
2018-12-20T10:14:49.085Z,8.58
2018-12-20T10:17:19.926Z,8.68
2018-12-20T10:19:43.549Z,8.77
2018-12-20T10:22:10.486Z,8.74
2018-12-20T10:24:37.892Z,8.63
2018-12-20T10:27:05.308Z,8.78
2018-12-20T10:29:32.728Z,8.83
2018-12-20T10:32:00.155Z,8.86
2018-12-20T10:34:27.565Z,8.86
2018-12-20T10:36:55.054Z,8.97
2018-12-20T10:39:22.439Z,8.96
2018-12-20T10:41:49.840Z,9.15
2018-12-20T10:44:16.834Z,9.25
2018-12-20T10:46:44.295Z,9.16
2018-12-20T10:49:11.777Z,8.94
2018-12-20T10:51:39.183Z,9.05
2018-12-20T10:54:06.208Z,9.11
2018-12-20T10:56:33.152Z,9.26
2018-12-20T10:59:00.600Z,9.36
2018-12-20T11:01:38.685Z,9.36
2018-12-20T11:04:11.747Z,9.51
2018-12-20T11:06:44.252Z,9.60
2018-12-20T11:09:16.900Z,9.76
2018-12-20T11:11:49.623Z,10.06
2018-12-20T11:14:16.627Z,10.02
2018-12-20T11:16:43.595Z,10.39
2018-12-20T11:19:10.542Z,10.56
2018-12-20T11:21:37.574Z,10.69
2018-12-20T11:24:04.619Z,10.82
2018-12-20T11:26:31.560Z,11.22
2018-12-20T11:28:58.544Z,12.37
2018-12-20T11:31:25.511Z,12.48
2018-12-20T11:33:52.951Z,12.43
2018-12-20T11:36:20.361Z,12.50
2018-12-20T11:38:47.758Z,12.15
2018-12-20T11:41:15.380Z,12.89
2018-12-20T11:43:42.879Z,14.55
2018-12-20T11:46:10.416Z,16.57
2018-12-20T11:48:37.824Z,14.67
2018-12-20T11:51:05.224Z,13.58
2018-12-20T11:53:32.638Z,12.59
2018-12-20T11:56:00.063Z,12.05
2018-12-20T11:58:27.502Z,11.88
2018-12-20T12:00:54.947Z,12.06
2018-12-20T12:03:22.599Z,12.26
2018-12-20T12:05:51.269Z,13.31
2018-12-20T12:08:18.682Z,15.41
2018-12-20T12:10:46.135Z,17.53
2018-12-20T12:13:13.538Z,17.61
2018-12-20T12:15:41.156Z,16.71
2018-12-20T12:18:08.631Z,14.79
2018-12-20T12:20:36.050Z,15.40
2018-12-20T12:23:03.574Z,15.28
2018-12-20T12:25:31.073Z,13.90
2018-12-20T12:27:58.517Z,12.66
2018-12-20T12:30:25.926Z,12.00
2018-12-20T12:32:53.347Z,11.65
2018-12-20T12:35:20.895Z,11.43
2018-12-20T12:37:48.285Z,11.28
2018-12-20T12:40:15.697Z,11.31
2018-12-20T12:42:43.175Z,11.16
2018-12-20T12:45:10.628Z,11.15
2018-12-20T12:47:43.748Z,11.23
2018-12-20T12:50:11.153Z,11.19
2018-12-20T12:52:38.705Z,11.12
2018-12-20T12:55:06.137Z,10.97
2018-12-20T12:57:33.570Z,10.81
2018-12-20T13:00:00.992Z,10.68
2018-12-20T13:02:28.439Z,10.59
2018-12-20T13:04:55.894Z,10.49
2018-12-20T13:07:23.335Z,10.40
2018-12-20T13:09:50.756Z,10.27
2018-12-20T13:12:18.152Z,10.22
2018-12-20T13:14:46.689Z,10.19
2018-12-20T13:17:14.275Z,10.14
2018-12-20T13:19:41.682Z,10.05
2018-12-20T13:22:09.150Z,9.87
2018-12-20T13:24:36.542Z,9.81
2018-12-20T13:27:03.951Z,9.70
2018-12-20T13:29:31.374Z,9.60
2018-12-20T13:31:58.800Z,9.55
2018-12-20T13:34:26.186Z,9.62
2018-12-20T13:36:53.647Z,9.57
2018-12-20T13:39:21.401Z,9.56
2018-12-20T13:41:48.786Z,9.58
2018-12-20T13:44:16.187Z,9.59
2018-12-20T13:46:43.735Z,9.67
2018-12-20T13:49:11.207Z,9.82
2018-12-20T13:51:39.388Z,9.87
2018-12-20T13:54:06.869Z,9.88
2018-12-20T13:56:34.286Z,9.81
2018-12-20T13:59:03.468Z,9.74
2018-12-20T14:01:28.768Z,9.62
2018-12-20T14:03:57.256Z,9.51
2018-12-20T14:06:23.609Z,9.41
2018-12-20T14:08:51.036Z,9.35
2018-12-20T14:11:18.450Z,9.30
2018-12-20T14:13:45.871Z,9.27
2018-12-20T14:16:13.757Z,9.21
2018-12-20T14:18:41.271Z,9.16
2018-12-20T14:21:08.664Z,9.09
2018-12-20T14:23:36.069Z,9.11
2018-12-20T14:26:03.466Z,9.08
2018-12-20T14:28:30.868Z,8.97
2018-12-20T14:30:58.327Z,8.94
2018-12-20T14:33:25.736Z,9.00
2018-12-20T14:35:53.301Z,9.08
2018-12-20T14:38:20.718Z,9.08
2018-12-20T14:40:48.184Z,9.07
2018-12-20T14:43:15.592Z,9.02
2018-12-20T14:45:43.035Z,8.96
2018-12-20T14:48:10.446Z,8.93
2018-12-20T14:50:38.356Z,8.92
2018-12-20T14:53:05.830Z,8.89
2018-12-20T14:55:33.267Z,8.90
2018-12-20T14:58:00.742Z,8.85
2018-12-20T15:00:28.172Z,8.83
2018-12-20T15:02:55.598Z,8.80
2018-12-20T15:05:22.752Z,8.74
2018-12-20T15:07:49.713Z,8.66
2018-12-20T15:10:16.751Z,8.62
2018-12-20T15:12:43.745Z,8.69
2018-12-20T15:15:10.765Z,8.70
2018-12-20T15:17:37.702Z,8.70
2018-12-20T15:20:04.646Z,8.70
2018-12-20T15:22:31.590Z,8.69
2018-12-20T15:24:58.526Z,8.65
2018-12-20T15:27:25.565Z,8.64
2018-12-20T15:29:52.551Z,8.72
2018-12-20T15:32:19.512Z,8.79
2018-12-20T15:34:46.458Z,8.84
2018-12-20T15:37:13.406Z,8.86
2018-12-20T15:39:40.363Z,8.83
2018-12-20T15:42:07.330Z,8.87
2018-12-20T15:44:34.340Z,8.94
2018-12-20T15:47:01.332Z,8.96
2018-12-20T15:49:28.280Z,8.99
2018-12-20T15:51:55.239Z,9.01
2018-12-20T15:54:22.278Z,8.95
2018-12-20T15:56:49.242Z,8.90
2018-12-20T15:59:16.179Z,8.91
2018-12-20T16:01:43.266Z,8.88
2018-12-20T16:04:10.403Z,8.92
2018-12-20T16:06:37.614Z,8.96
2018-12-20T16:09:05.062Z,9.03
2018-12-20T16:11:32.484Z,9.06
2018-12-20T16:14:00.775Z,9.04
2018-12-20T16:16:28.179Z,9.02
2018-12-20T16:18:55.575Z,9.03
2018-12-20T16:21:23.122Z,9.04
2018-12-20T16:23:50.620Z,9.04
2018-12-20T16:26:18.108Z,9.01
2018-12-20T16:28:45.434Z,8.99
2018-12-20T16:31:12.843Z,8.88
2018-12-20T16:33:40.248Z,8.84
2018-12-20T16:36:07.235Z,8.77
2018-12-20T16:38:34.253Z,8.75
2018-12-20T16:41:01.687Z,8.65
2018-12-20T16:43:29.196Z,8.59
2018-12-20T16:45:56.618Z,8.56
2018-12-20T16:48:24.083Z,8.52
2018-12-20T16:50:51.506Z,8.51
2018-12-20T16:53:18.886Z,8.53
2018-12-20T16:55:46.287Z,8.51
2018-12-20T16:58:13.691Z,8.48
2018-12-20T17:00:41.129Z,8.45
2018-12-20T17:03:08.713Z,8.44
2018-12-20T17:05:36.416Z,8.39
2018-12-20T17:08:03.920Z,8.42
2018-12-20T17:10:31.377Z,8.42
2018-12-20T17:12:59.210Z,8.43
2018-12-20T17:15:26.684Z,8.47
2018-12-20T17:17:54.213Z,8.46
2018-12-20T17:20:21.621Z,8.45
2018-12-20T17:22:49.209Z,8.46
2018-12-20T17:25:16.692Z,8.52
2018-12-20T17:27:44.093Z,8.60
2018-12-20T17:30:11.517Z,8.66
2018-12-20T17:32:38.945Z,8.72
2018-12-20T17:35:06.381Z,8.72
2018-12-20T17:37:33.882Z,8.75
2018-12-20T17:40:01.318Z,8.79
2018-12-20T17:42:28.720Z,8.80
2018-12-20T17:44:56.142Z,8.78
2018-12-20T17:47:23.940Z,8.73
2018-12-20T17:49:51.430Z,8.64
2018-12-20T17:52:18.876Z,8.54
2018-12-20T17:54:46.300Z,8.48
2018-12-20T17:57:13.734Z,8.45
2018-12-20T17:59:41.130Z,8.45
2018-12-20T18:02:08.572Z,8.41
2018-12-20T18:04:36.006Z,8.40
2018-12-20T18:07:03.407Z,8.39
2018-12-20T18:09:30.811Z,8.33
2018-12-20T18:11:58.221Z,8.26
2018-12-20T18:14:25.836Z,8.23
2018-12-20T18:16:53.532Z,8.22
2018-12-20T18:19:21.016Z,8.21
2018-12-20T18:21:48.420Z,8.15
2018-12-20T18:24:15.841Z,8.14
2018-12-20T18:26:43.308Z,8.10
2018-12-20T18:29:10.805Z,8.05
2018-12-20T18:31:38.231Z,8.03
2018-12-20T18:34:05.879Z,8.00
2018-12-20T18:36:33.299Z,7.97
2018-12-20T18:39:00.706Z,8.05
2018-12-20T18:41:28.231Z,8.08
2018-12-20T18:43:55.635Z,7.99
2018-12-20T18:46:23.032Z,7.96
2018-12-20T18:48:50.474Z,7.90
2018-12-20T18:51:17.902Z,7.86
2018-12-20T18:53:45.327Z,8.11
2018-12-20T18:56:13.447Z,8.27
2018-12-20T18:58:40.998Z,8.40
2018-12-20T19:01:08.439Z,8.50
2018-12-20T19:03:35.854Z,8.25
2018-12-20T19:06:03.275Z,8.05
2018-12-20T19:08:30.958Z,7.92
2018-12-20T19:10:58.363Z,7.87
2018-12-20T19:13:25.778Z,7.84
2018-12-20T19:15:53.482Z,7.80
2018-12-20T19:18:20.906Z,7.82
2018-12-20T19:20:48.317Z,7.80
2018-12-20T19:23:16.467Z,7.76
2018-12-20T19:25:43.905Z,7.68
2018-12-20T19:28:11.302Z,7.63
2018-12-20T19:30:38.715Z,7.58
2018-12-20T19:33:06.136Z,7.54
2018-12-20T19:35:33.544Z,7.50
2018-12-20T19:38:00.967Z,7.51
2018-12-20T19:40:28.461Z,7.53
2018-12-20T19:42:55.898Z,7.51
2018-12-20T19:45:23.310Z,7.57
2018-12-20T19:47:50.707Z,7.62
2018-12-20T19:50:18.162Z,7.69
2018-12-20T19:52:45.627Z,7.65
2018-12-20T19:55:13.024Z,7.60
2018-12-20T19:57:40.466Z,7.52
2018-12-20T20:00:07.940Z,7.47
2018-12-20T20:02:35.416Z,7.51
2018-12-20T20:05:02.842Z,7.58
2018-12-20T20:07:30.241Z,7.57
2018-12-20T20:09:57.655Z,7.54
2018-12-20T20:12:25.068Z,7.51
2018-12-20T20:14:52.458Z,7.50
2018-12-20T20:17:19.862Z,7.50
2018-12-20T20:19:47.254Z,7.51
2018-12-20T20:22:14.658Z,7.51
2018-12-20T20:24:42.052Z,7.51
2018-12-20T20:27:09.474Z,7.53
2018-12-20T20:29:36.965Z,7.49
2018-12-20T20:32:04.387Z,7.50
2018-12-20T20:34:31.775Z,7.52
2018-12-20T20:36:59.188Z,7.51
2018-12-20T20:39:26.580Z,7.53
2018-12-20T20:41:54.069Z,7.51
2018-12-20T20:44:21.485Z,7.53
2018-12-20T20:46:48.923Z,7.48
2018-12-20T20:49:16.353Z,7.46
2018-12-20T20:51:43.277Z,7.48
2018-12-20T20:54:11.322Z,7.49
2018-12-20T20:56:38.740Z,7.53
2018-12-20T20:59:06.210Z,7.60
2018-12-20T21:01:33.610Z,7.63
2018-12-20T21:04:03.709Z,7.60
2018-12-20T21:06:28.471Z,7.55
2018-12-20T21:08:55.876Z,7.54
2018-12-20T21:11:23.413Z,7.57
2018-12-20T21:13:50.748Z,7.54
2018-12-20T21:16:17.695Z,7.50
2018-12-20T21:18:45.135Z,7.52
2018-12-20T21:21:13.326Z,7.54
2018-12-20T21:23:40.737Z,7.59
2018-12-20T21:26:08.130Z,7.69
2018-12-20T21:28:35.306Z,7.72
2018-12-20T21:31:03.067Z,7.73
2018-12-20T21:33:30.019Z,7.78
2018-12-20T21:35:57.029Z,7.76
2018-12-20T21:38:24.504Z,7.76
2018-12-20T21:40:51.509Z,7.71
2018-12-20T21:43:18.942Z,7.61
2018-12-20T21:45:45.911Z,7.58
2018-12-20T21:48:13.331Z,7.55
2018-12-20T21:50:40.761Z,7.52
2018-12-20T21:53:08.254Z,7.50
2018-12-20T21:55:35.683Z,7.46
2018-12-20T21:58:03.066Z,7.45
2018-12-20T22:00:30.607Z,7.46
2018-12-20T22:02:58.012Z,7.44
2018-12-20T22:05:25.465Z,7.40
2018-12-20T22:07:52.855Z,7.39
2018-12-20T22:10:20.298Z,7.37
2018-12-20T22:12:47.736Z,7.33
2018-12-20T22:15:15.146Z,7.33
2018-12-20T22:17:42.559Z,7.35
2018-12-20T22:20:10.044Z,7.38
2018-12-20T22:22:37.492Z,7.41
2018-12-20T22:25:04.925Z,7.46
2018-12-20T22:27:32.440Z,7.52
2018-12-20T22:29:59.759Z,7.57
2018-12-20T22:32:27.187Z,7.60
2018-12-20T22:34:54.616Z,7.71
2018-12-20T22:37:22.003Z,7.79
2018-12-20T22:39:49.480Z,7.83
2018-12-20T22:42:16.917Z,7.94
2018-12-20T22:44:44.400Z,8.01
2018-12-20T22:47:11.794Z,8.07
2018-12-20T22:49:39.263Z,8.09
2018-12-20T22:52:06.657Z,8.14
2018-12-20T22:54:34.087Z,8.15
2018-12-20T22:57:01.514Z,8.20
2018-12-20T22:59:28.906Z,8.21
2018-12-20T23:01:56.307Z,8.18
2018-12-20T23:04:23.713Z,8.19
2018-12-20T23:06:51.146Z,8.17
2018-12-20T23:09:18.586Z,8.12
2018-12-20T23:11:45.982Z,8.03
2018-12-20T23:14:13.385Z,7.98
2018-12-20T23:16:40.774Z,7.97
2018-12-20T23:19:08.187Z,7.91
2018-12-20T23:21:35.584Z,7.86
2018-12-20T23:24:03.078Z,7.83
2018-12-20T23:26:31.399Z,7.79
2018-12-20T23:28:58.795Z,7.80
2018-12-20T23:31:26.200Z,7.84
2018-12-20T23:33:53.662Z,7.92
2018-12-20T23:36:21.055Z,7.96
2018-12-20T23:38:48.527Z,7.97
2018-12-20T23:41:15.958Z,7.87
2018-12-20T23:43:43.361Z,7.82
2018-12-20T23:46:10.762Z,7.86
2018-12-20T23:48:38.167Z,7.93
2018-12-20T23:51:13.237Z,7.97
2018-12-20T23:53:33.025Z,7.92
2018-12-20T23:56:00.409Z,7.84
2018-12-20T23:58:27.856Z,7.78
